Briefing drone pour Reignier-esery

Rechercher une autre localisation

Conditions de vol :


Nous sommes le : Jeudi 29 septembre 2022
Il est 01:20 UTC (03:20 LT)

Lever de soleil : 05:04 UTC (07:04 LT)
Coucher de soleil : 17:46 UTC (19:46 LT)

Météo

L'essentiel des conditions de vol

VIGILANCE MÉTÉO FRANCE - Haute-Savoie (74)
Vigilance Jaune : Pluie-inondation
CARTE TEMSI
CARTES DES FRONTS
METAR de LFLP
LFLP 290100Z AUTO VRB02KT 4200 RA BR SCT011/// BKN036/// OVC045/// ///TCU 11/11 Q1002

Date d'émission: 29/09/2022
Heure d'émission: 01:00 UTC
Vent: Variable 2 KT (4 km/h)
Visibilité horizontale: 4200 m
Plafond :
- Nuages épars à 1100ft (335m)
- Nuages morcelés à 3600ft (1097m)
- Couvert à 4500ft (1372m)
Température: 11 °C
Point de rosée: 11 °C
Humidité: 100%
Pression (QNH): 1002 hPa
Conditions: Pluie
TAF de LFLP
AMD LFLP 281901Z 2819/2915 CNL

Conditions prévues :

Heure d'émission : Bulletin éffectué le 28 à 19:00 UTC
Prévision : Valide du 28 a 19:00 UTC au 29 a 15:00 UTC
Nuages : à 0ft (0 m)
WEBCAM POUR REIGNIER-ESERY

Réglementation

Voler en sécurité

CARTES AERONAUTIQUE 1/500.000
CARTE AZBA (Reseau basse altitude)
CARTES VAC (LFLP)
SUP AIP




Chargement des AIP...
NOTAM (REIGNIER-ESERY + Terrain à proximité / FIR )




Chargement des NOTAMS...
CONTACT PREFECTURE 74


Avertissement : Les données mises à disposition sont indicatives. Oxygène Drone ne pourra être tenu responsable de dégâts causés aux biens et aux personnes.